Time;durP1;ratioP1;P1;durP2;ratioP2;P2;SDS_P1;SDS_P2;PMS_P1;PMS_P2;Temp;Humidity;BMP_temperature;BMP_pressure;BME280_temperature;BME280_humidity;BME280_pressure;Samples;Min_cycle;Max_cycle;Signal;HPM_P1;HPM_P2
2022/10/31 00:01:33;;;;;;;17.10;6.90;;;;;;;10.93;100.00;102133.00;6220007;23;20037;-77
2022/10/31 00:03:59;;;;;;;11.98;6.68;;;;;;;10.91;100.00;102127.34;6220258;23;20091;-77
2022/10/31 00:06:27;;;;;;;15.88;7.03;;;;;;;10.91;100.00;102130.75;6220686;23;20088;-77
2022/10/31 00:08:59;;;;;;;11.05;7.10;;;;;;;10.93;100.00;102133.00;6220251;23;20342;-77
2022/10/31 00:11:26;;;;;;;11.13;7.05;;;;;;;10.92;100.00;102132.25;6220684;23;20092;-77
2022/10/31 00:13:53;;;;;;;8.35;6.93;;;;;;;10.93;100.00;102136.41;6219735;23;20021;-77
2022/10/31 00:16:22;;;;;;;9.55;7.45;;;;;;;10.95;100.00;102141.34;6220602;23;20096;-77
2022/10/31 00:18:56;;;;;;;10.02;7.68;;;;;;;10.93;100.00;102139.09;6220330;23;20084;-77
2022/10/31 00:21:24;;;;;;;11.40;7.65;;;;;;;10.92;100.00;102144.81;6220418;23;20044;-77
2022/10/31 00:23:51;;;;;;;13.68;7.57;;;;;;;10.88;100.00;102149.47;6219932;23;20021;-77
2022/10/31 00:26:18;;;;;;;8.02;7.25;;;;;;;10.88;100.00;102138.81;6220616;23;20051;-77
2022/10/31 00:28:44;;;;;;;8.52;6.78;;;;;;;10.87;100.00;102142.63;6220036;23;20523;-77
2022/10/31 00:31:12;;;;;;;10.15;7.28;;;;;;;10.84;100.00;102141.53;6193367;23;20486;-77
2022/10/31 00:33:40;;;;;;;10.02;7.63;;;;;;;10.85;100.00;102144.94;6194032;23;20068;-77
2022/10/31 00:36:08;;;;;;;8.50;7.40;;;;;;;10.85;100.00;102150.28;6220088;23;20077;-77
2022/10/31 00:38:34;;;;;;;13.45;7.25;;;;;;;10.83;100.00;102141.94;6220411;23;20019;-77
2022/10/31 00:41:01;;;;;;;11.70;7.63;;;;;;;10.83;100.00;102149.91;6192969;23;20072;-77
2022/10/31 00:43:27;;;;;;;14.98;8.07;;;;;;;10.83;100.00;102148.00;6219843;23;20117;-77
2022/10/31 00:45:54;;;;;;;10.68;8.05;;;;;;;10.80;100.00;102143.50;6220031;23;20777;-77
2022/10/31 00:48:23;;;;;;;8.63;7.45;;;;;;;10.81;100.00;102152.25;6220427;23;20462;-77
2022/10/31 00:50:49;;;;;;;12.00;8.60;;;;;;;10.77;100.00;102149.66;6220033;23;20017;-77
2022/10/31 00:53:16;;;;;;;10.48;8.13;;;;;;;10.77;100.00;102149.66;6220419;23;20095;-77
2022/10/31 00:55:42;;;;;;;14.55;8.55;;;;;;;10.77;100.00;102154.22;6193410;23;20079;-77
2022/10/31 00:58:09;;;;;;;9.32;8.20;;;;;;;10.77;100.00;102154.22;6219412;23;20020;-77
2022/10/31 01:00:38;;;;;;;9.45;8.30;;;;;;;10.76;100.00;102153.47;6193292;23;20410;-77
2022/10/31 01:03:04;;;;;;;11.05;8.27;;;;;;;10.76;100.00;102152.72;6192962;23;20021;-77
2022/10/31 01:05:31;;;;;;;17.52;8.38;;;;;;;10.74;100.00;102149.72;6220455;23;20408;-77
2022/10/31 01:07:59;;;;;;;14.85;8.40;;;;;;;10.72;100.00;102150.13;6219886;23;20407;-77
2022/10/31 01:10:26;;;;;;;11.05;7.90;;;;;;;10.71;100.00;102148.63;6192875;23;20032;-77
2022/10/31 01:12:52;;;;;;;8.63;7.53;;;;;;;10.68;100.00;102144.09;6192421;23;20017;-77
2022/10/31 01:15:22;;;;;;;9.07;7.63;;;;;;;10.65;100.00;102148.31;6192542;23;20502;-77
2022/10/31 01:17:49;;;;;;;11.45;8.10;;;;;;;10.59;100.00;102141.19;6192934;23;20021;-77
2022/10/31 01:20:16;;;;;;;11.18;7.90;;;;;;;10.54;100.00;102136.31;6220147;23;20482;-77
2022/10/31 01:22:42;;;;;;;11.02;7.80;;;;;;;10.54;100.00;102141.66;6220122;23;20013;-77
2022/10/31 01:25:11;;;;;;;10.45;7.70;;;;;;;10.49;100.00;102134.13;6219799;23;20096;-77
2022/10/31 01:27:38;;;;;;;9.50;7.68;;;;;;;10.50;100.00;102124.97;6219670;23;20017;-77
2022/10/31 01:30:06;;;;;;;11.73;8.13;;;;;;;10.50;100.00;102123.06;6219517;23;20092;-77
2022/10/31 01:32:33;;;;;;;9.98;7.60;;;;;;;10.48;100.00;102122.72;6220327;23;20017;-77
2022/10/31 01:34:59;;;;;;;10.80;7.60;;;;;;;10.43;100.00;102123.19;6219932;23;20020;-77
2022/10/31 01:37:26;;;;;;;20.08;7.90;;;;;;;10.40;100.00;102123.25;6193223;23;20028;-77
2022/10/31 01:39:52;;;;;;;11.43;7.88;;;;;;;10.30;100.00;102120.34;6219793;23;20017;-77
2022/10/31 01:42:22;;;;;;;10.82;8.23;;;;;;;10.32;100.00;102126.03;6192830;23;20013;-77
2022/10/31 01:44:58;;;;;;;11.00;7.60;;;;;;;10.32;100.00;102120.72;6219680;23;20024;-77
2022/10/31 01:47:37;;;;;;;12.38;8.05;;;;;;;10.28;100.00;102120.00;6188019;23;20110;-77
2022/10/31 01:50:12;;;;;;;9.07;7.43;;;;;;;10.20;100.00;102113.28;6189785;23;20018;-77
2022/10/31 01:52:46;;;;;;;13.60;7.65;;;;;;;10.13;100.00;102109.94;6190128;23;20049;-76
2022/10/31 01:55:19;;;;;;;12.32;6.80;;;;;;;10.12;100.00;102111.09;6187863;23;20463;-77
2022/10/31 01:57:50;;;;;;;12.00;7.32;;;;;;;10.01;100.00;102108.56;6186860;23;20037;-77
2022/10/31 02:00:18;;;;;;;9.60;6.70;;;;;;;10.00;100.00;102107.06;6189360;23;20017;-77
2022/10/31 02:02:46;;;;;;;8.90;7.15;;;;;;;10.00;100.00;102104.41;6187871;23;20227;-76
2022/10/31 02:05:17;;;;;;;9.45;7.65;;;;;;;10.00;100.00;102101.75;6187922;23;20090;-76
2022/10/31 02:08:04;;;;;;;8.82;7.55;;;;;;;9.98;100.00;102104.09;6189075;23;20454;-77
2022/10/31 02:10:33;;;;;;;13.20;7.43;;;;;;;9.88;99.88;102115.63;6187389;23;20022;-77
2022/10/31 02:13:02;;;;;;;11.85;7.28;;;;;;;9.79;100.00;102108.13;6187605;23;20539;-76
2022/10/31 02:15:31;;;;;;;10.13;6.90;;;;;;;9.77;99.49;102107.78;6187932;23;20022;-76
2022/10/31 02:17:58;;;;;;;13.80;7.65;;;;;;;9.73;100.00;102108.97;6187721;23;20022;-77
2022/10/31 02:20:32;;;;;;;9.70;7.53;;;;;;;9.65;99.68;102114.38;6189836;23;20017;-77
2022/10/31 02:23:21;;;;;;;11.52;7.13;;;;;;;9.60;99.20;102108.75;6187320;23;20021;-77
2022/10/31 02:26:20;;;;;;;7.32;6.72;;;;;;;9.62;99.66;102117.84;6162104;23;20017;-77
2022/10/31 02:29:16;;;;;;;7.53;6.80;;;;;;;9.54;99.34;102115.69;6187634;23;20021;-77
2022/10/31 02:31:50;;;;;;;11.18;6.72;;;;;;;9.49;99.09;102116.88;6188043;23;20070;-76
2022/10/31 02:34:23;;;;;;;8.80;7.13;;;;;;;9.41;99.04;102117.34;6188125;23;20029;-77
2022/10/31 02:37:16;;;;;;;10.75;6.85;;;;;;;9.33;99.18;102106.78;6189253;23;20044;-77
2022/10/31 02:40:04;;;;;;;7.80;7.03;;;;;;;9.35;99.69;102111.72;6178262;23;20021;-76
2022/10/31 02:43:16;;;;;;;8.10;6.97;;;;;;;9.34;99.89;102110.97;6189131;23;20427;-76
2022/10/31 02:45:50;;;;;;;10.20;6.53;;;;;;;9.33;99.82;102119.31;6189711;23;20049;-77
2022/10/31 02:48:20;;;;;;;7.78;6.65;;;;;;;9.31;99.39;102119.72;6187876;23;20025;-77
2022/10/31 02:50:55;;;;;;;8.48;6.55;;;;;;;9.27;99.54;102118.25;6187319;23;20048;-77
2022/10/31 02:53:21;;;;;;;6.90;6.20;;;;;;;9.26;99.37;102124.72;6187321;23;20076;-77
2022/10/31 02:55:58;;;;;;;8.93;6.45;;;;;;;9.19;98.57;102117.59;6187412;23;20451;-77
2022/10/31 02:58:30;;;;;;;10.55;6.93;;;;;;;9.09;99.32;102115.81;6187973;23;20077;-77
2022/10/31 03:01:33;;;;;;;7.53;6.45;;;;;;;9.10;99.16;102109.34;6187493;23;20413;-76
2022/10/31 03:04:19;;;;;;;9.15;6.20;;;;;;;9.06;99.46;102116.59;6123015;23;20477;-77
2022/10/31 03:07:05;;;;;;;7.45;6.63;;;;;;;9.00;98.93;102113.59;6187472;23;20459;-77
2022/10/31 03:09:52;;;;;;;6.00;5.40;;;;;;;8.98;98.78;102115.16;6187213;23;20041;-77
2022/10/31 03:12:38;;;;;;;7.28;6.40;;;;;;;8.86;98.28;102113.72;6187778;23;20025;-76
2022/10/31 03:15:28;;;;;;;7.15;6.47;;;;;;;8.85;98.63;102114.88;6187447;23;20691;-77
2022/10/31 03:18:01;;;;;;;8.20;5.78;;;;;;;8.87;99.04;102115.25;6189084;23;20014;-76
2022/10/31 03:20:36;;;;;;;7.75;6.10;;;;;;;8.83;98.08;102111.88;6187787;23;20022;-77
2022/10/31 03:23:06;;;;;;;7.07;6.40;;;;;;;8.80;98.03;102117.19;6188189;23;20048;-77
2022/10/31 03:25:36;;;;;;;8.60;6.95;;;;;;;8.76;98.54;102122.56;6189373;23;20434;-76
2022/10/31 03:28:05;;;;;;;7.88;6.38;;;;;;;8.75;98.72;102128.28;6189020;23;20481;-77
2022/10/31 03:30:35;;;;;;;9.32;6.40;;;;;;;8.65;98.33;102120.00;6187239;23;20460;-76
2022/10/31 03:33:05;;;;;;;7.30;6.70;;;;;;;8.56;98.34;102119.69;6187427;23;20017;-77
2022/10/31 03:35:35;;;;;;;7.68;6.68;;;;;;;8.55;98.61;102125.38;6189050;23;20018;-77
2022/10/31 03:38:03;;;;;;;7.43;6.72;;;;;;;8.54;98.95;102121.22;6187631;23;20018;-76
2022/10/31 03:40:37;;;;;;;7.10;6.40;;;;;;;8.55;99.43;102118.19;6189131;23;20108;-77
2022/10/31 03:43:10;;;;;;;12.67;6.60;;;;;;;8.53;98.84;102119.72;6188181;23;20045;-77
2022/10/31 03:45:43;;;;;;;6.75;6.15;;;;;;;8.48;98.85;102123.53;6190594;23;20018;-77
2022/10/31 03:48:13;;;;;;;6.85;6.18;;;;;;;8.44;98.88;102120.16;6164341;23;20022;-77
2022/10/31 03:51:06;;;;;;;6.22;5.60;;;;;;;8.44;98.46;102122.06;6188654;23;20049;-77
2022/10/31 03:53:54;;;;;;;6.18;5.68;;;;;;;8.39;98.55;102122.50;6164241;23;20163;-77
2022/10/31 03:56:44;;;;;;;5.93;5.43;;;;;;;8.40;98.37;102118.69;6188899;23;20021;-77
2022/10/31 03:59:22;;;;;;;8.50;5.60;;;;;;;8.35;98.04;102125.19;6188869;23;20363;-77
2022/10/31 04:01:55;;;;;;;6.25;5.72;;;;;;;8.32;98.11;102117.97;6188245;23;20474;-77
2022/10/31 04:04:21;;;;;;;5.70;5.20;;;;;;;8.25;97.35;102118.75;6188722;23;20032;-77
2022/10/31 04:06:50;;;;;;;6.07;5.65;;;;;;;8.23;98.10;102122.94;6189444;23;20026;-77
2022/10/31 04:09:19;;;;;;;6.28;5.68;;;;;;;8.26;98.44;102120.28;6188650;23;20029;-77
2022/10/31 04:11:50;;;;;;;7.90;5.78;;;;;;;8.25;98.08;102118.75;6188068;23;20096;-77
2022/10/31 04:14:32;;;;;;;6.10;5.50;;;;;;;8.24;98.55;102127.13;6188411;23;20105;-77
2022/10/31 04:17:01;;;;;;;6.30;5.80;;;;;;;8.21;98.28;102126.00;6188142;23;20077;-77
2022/10/31 04:19:34;;;;;;;5.00;4.70;;;;;;;8.16;98.24;102129.03;6188836;23;20017;-77
2022/10/31 04:22:01;;;;;;;4.93;4.63;;;;;;;8.11;97.95;102129.47;6187715;23;20021;-77
2022/10/31 04:24:28;;;;;;;5.22;4.72;;;;;;;8.09;98.01;102131.75;6190205;23;20018;-77
2022/10/31 04:26:54;;;;;;;5.38;4.97;;;;;;;8.02;98.20;102127.22;6188300;23;20490;-77
2022/10/31 04:29:23;;;;;;;7.47;5.18;;;;;;;8.01;97.76;102127.63;6188384;23;20116;-77
2022/10/31 04:31:50;;;;;;;5.25;4.75;;;;;;;7.93;98.51;102120.88;6188337;23;20024;-76
2022/10/31 04:34:16;;;;;;;6.57;4.45;;;;;;;7.92;98.36;102120.09;6190352;23;20041;-79
2022/10/31 04:36:43;;;;;;;6.68;5.00;;;;;;;7.90;98.74;102117.09;6188003;23;20066;-79
2022/10/31 04:39:14;;;;;;;4.90;4.47;;;;;;;7.92;98.75;102119.34;6190261;23;20072;-79
2022/10/31 04:41:47;;;;;;;6.57;4.90;;;;;;;7.92;98.93;102120.09;6188435;23;20459;-79
2022/10/31 04:44:15;;;;;;;5.68;5.13;;;;;;;7.92;98.60;102119.34;6189827;23;20018;-79
2022/10/31 04:46:42;;;;;;;5.70;5.20;;;;;;;7.89;98.70;102114.81;6188879;23;20080;-77
2022/10/31 04:49:09;;;;;;;7.55;5.03;;;;;;;7.87;98.79;102117.09;6192343;23;20037;-79
2022/10/31 04:51:36;;;;;;;5.45;4.93;;;;;;;7.79;98.83;102113.72;6193586;23;20024;-79
2022/10/31 04:54:02;;;;;;;7.22;4.60;;;;;;;7.77;99.03;102108.06;6193110;23;20146;-79
2022/10/31 04:57:04;;;;;;;5.10;4.70;;;;;;;7.80;99.06;102111.84;6069288;23;20031;-79
2022/10/31 04:59:31;;;;;;;4.57;4.20;;;;;;;7.79;98.95;102111.06;6045257;23;20026;-77
2022/10/31 05:01:59;;;;;;;4.55;4.15;;;;;;;7.76;98.71;102113.75;6044877;23;20071;-75
2022/10/31 05:04:44;;;;;;;5.13;4.65;;;;;;;7.70;98.57;102114.16;6044520;23;20048;-78
2022/10/31 05:07:11;;;;;;;4.60;4.20;;;;;;;7.66;99.05;102102.81;6045326;23;20024;-77
2022/10/31 05:09:37;;;;;;;5.93;4.18;;;;;;;7.62;98.95;102107.34;6045208;23;20619;-77
2022/10/31 05:12:04;;;;;;;5.03;4.30;;;;;;;7.58;98.61;102108.53;6044976;23;20051;-77
2022/10/31 05:14:49;;;;;;;4.78;4.38;;;;;;;7.54;98.90;102100.59;6069268;23;20390;-77
2022/10/31 05:17:44;;;;;;;4.60;4.20;;;;;;;7.58;99.23;102104.00;6069540;23;20432;-77
2022/10/31 05:20:34;;;;;;;5.13;4.72;;;;;;;7.59;99.16;102105.50;6069187;23;20031;-77
2022/10/31 05:23:14;;;;;;;5.38;4.32;;;;;;;7.58;98.94;102103.25;6069636;23;20441;-78
2022/10/31 05:25:41;;;;;;;4.80;4.43;;;;;;;7.56;99.36;102100.22;6045175;23;20027;-78
2022/10/31 05:28:07;;;;;;;4.68;4.35;;;;;;;7.57;99.25;102107.78;6044782;23;20027;-77
2022/10/31 05:30:34;;;;;;;5.60;4.22;;;;;;;7.57;99.30;102101.72;6061249;23;20021;-78
2022/10/31 05:33:02;;;;;;;5.55;4.60;;;;;;;7.56;99.24;102095.66;6192292;23;20028;-77
2022/10/31 05:35:47;;;;;;;7.85;5.25;;;;;;;7.52;99.08;102099.47;6221069;23;20041;-78
2022/10/31 05:38:32;;;;;;;9.25;5.28;;;;;;;7.51;99.07;102100.63;6221093;23;20028;-80
2022/10/31 05:41:09;;;;;;;6.68;5.45;;;;;;;7.51;99.40;102093.41;6192999;23;20488;-78
2022/10/31 05:43:37;;;;;;;15.25;5.93;;;;;;;7.46;99.54;102095.72;6192696;23;20021;-78
2022/10/31 05:46:06;;;;;;;23.35;5.80;;;;;;;7.40;99.83;102095.34;6192764;23;20083;-77
2022/10/31 05:48:51;;;;;;;10.20;5.93;;;;;;;7.34;99.59;102091.59;6219403;23;20041;-78
2022/10/31 05:51:35;;;;;;;11.18;6.18;;;;;;;7.30;99.83;102099.53;6220441;23;20494;-77
2022/10/31 05:54:03;;;;;;;13.95;6.40;;;;;;;7.28;100.00;102096.50;6193940;23;20447;-78
2022/10/31 05:56:30;;;;;;;9.82;7.93;;;;;;;7.27;100.00;102089.72;6192881;23;20024;-76
2022/10/31 05:58:56;;;;;;;9.00;7.72;;;;;;;7.29;100.00;102087.44;6193968;23;20444;-77
2022/10/31 06:01:24;;;;;;;8.88;7.70;;;;;;;7.30;100.00;102082.88;6193907;23;20427;-76
2022/10/31 06:03:51;;;;;;;10.85;8.20;;;;;;;7.31;100.00;102081.75;6220503;23;20018;-77
2022/10/31 06:06:21;;;;;;;24.58;8.23;;;;;;;7.29;100.00;102079.47;6194030;23;20021;-76
2022/10/31 06:08:48;;;;;;;40.45;8.02;;;;;;;7.26;100.00;102088.19;6169275;23;20025;-77
2022/10/31 06:11:19;;;;;;;15.32;8.85;;;;;;;7.28;100.00;102077.97;6194102;23;20009;-77
2022/10/31 06:14:04;;;;;;;50.50;8.55;;;;;;;7.28;100.00;102080.63;6220955;23;20506;-77
2022/10/31 06:16:42;;;;;;;31.02;8.73;;;;;;;7.31;100.00;102084.41;6193245;23;20021;-77
2022/10/31 06:19:27;;;;;;;12.90;8.10;;;;;;;7.35;100.00;102082.50;6198289;23;20029;-77
2022/10/31 06:21:53;;;;;;;32.60;8.60;;;;;;;7.36;100.00;102078.72;6220675;23;20097;-76
2022/10/31 06:24:19;;;;;;;17.98;8.70;;;;;;;7.37;100.00;102080.22;6220575;23;20468;-76
2022/10/31 06:26:59;;;;;;;23.88;9.00;;;;;;;7.39;100.00;102075.28;6193532;23;20017;-76
2022/10/31 06:29:26;;;;;;;19.98;8.13;;;;;;;7.42;100.00;102084.38;6193407;23;20033;-76
2022/10/31 06:32:05;;;;;;;20.00;8.95;;;;;;;7.40;100.00;102079.44;6193258;23;20039;-76
2022/10/31 06:34:37;;;;;;;42.20;8.25;;;;;;;7.40;100.00;102090.03;6169853;23;20039;-76
2022/10/31 06:37:06;;;;;;;56.80;8.98;;;;;;;7.34;100.00;102084.38;6193224;23;20493;-76
2022/10/31 06:39:34;;;;;;;49.55;9.05;;;;;;;7.37;100.00;102082.88;6193009;23;20017;-76
2022/10/31 06:42:01;;;;;;;86.43;9.05;;;;;;;7.39;100.00;102085.88;6193380;23;20116;-76
2022/10/31 06:44:29;;;;;;;32.55;8.43;;;;;;;7.40;100.00;102099.91;6193277;23;20021;-76
2022/10/31 06:46:59;;;;;;;51.53;9.63;;;;;;;7.42;100.00;102103.66;6219919;23;20028;-76
2022/10/31 06:49:53;;;;;;;24.52;8.15;;;;;;;7.43;100.00;102093.81;6193331;23;20103;-76
2022/10/31 06:52:23;;;;;;;29.88;8.10;;;;;;;7.42;100.00;102093.06;6193549;23;20106;-77
2022/10/31 06:54:50;;;;;;;22.08;9.00;;;;;;;7.41;100.00;102091.56;6193430;23;20068;-76
2022/10/31 06:57:19;;;;;;;28.30;8.30;;;;;;;7.44;100.00;102108.59;6193141;23;20017;-78
2022/10/31 06:59:46;;;;;;;11.32;8.63;;;;;;;7.46;100.00;102108.97;6192855;23;20095;-77
2022/10/31 07:02:24;;;;;;;16.35;8.85;;;;;;;7.49;100.00;102101.00;6193661;23;20048;-77
2022/10/31 07:04:51;;;;;;;11.63;8.68;;;;;;;7.52;100.00;102108.19;6193526;23;20103;-78
2022/10/31 07:07:20;;;;;;;29.70;8.70;;;;;;;7.54;100.00;102097.19;6193456;23;20024;-78
2022/10/31 07:09:47;;;;;;;21.35;8.80;;;;;;;7.56;100.00;102113.47;6194597;23;20028;-78
2022/10/31 07:12:16;;;;;;;29.33;8.98;;;;;;;7.58;100.00;102104.00;6194510;23;20433;-78
2022/10/31 07:14:52;;;;;;;44.35;9.23;;;;;;;7.62;100.00;102104.72;6194137;23;20014;-78
2022/10/31 07:17:18;;;;;;;25.13;8.68;;;;;;;7.65;100.00;102105.84;6194747;23;20027;-78
2022/10/31 07:19:45;;;;;;;11.77;8.43;;;;;;;7.66;100.00;102092.19;6194615;23;20021;-80
2022/10/31 07:22:15;;;;;;;30.17;8.07;;;;;;;7.67;100.00;102093.72;6194419;23;20029;-78
2022/10/31 07:24:43;;;;;;;9.77;8.07;;;;;;;7.69;100.00;102098.63;6194322;23;20107;-79
2022/10/31 07:27:42;;;;;;;40.90;8.30;;;;;;;7.74;100.00;102090.28;6215144;23;20025;-79
2022/10/31 07:30:12;;;;;;;20.40;7.53;;;;;;;7.76;100.00;102097.84;6220956;23;20024;-78
2022/10/31 07:32:50;;;;;;;22.98;7.70;;;;;;;7.78;100.00;102098.22;6194556;23;20068;-80
2022/10/31 07:35:22;;;;;;;12.82;7.70;;;;;;;7.81;100.00;102119.41;6194294;23;20052;-79
2022/10/31 07:37:55;;;;;;;23.67;8.07;;;;;;;7.87;100.00;102109.91;6194570;23;20028;-79
2022/10/31 07:40:23;;;;;;;9.23;8.02;;;;;;;7.89;100.00;102117.47;6194419;23;20017;-79
2022/10/31 07:42:52;;;;;;;15.45;8.23;;;;;;;7.94;100.00;102117.06;6194298;23;20017;-80
2022/10/31 07:45:37;;;;;;;13.50;8.02;;;;;;;7.98;100.00;102107.97;6221147;23;20116;-80
2022/10/31 07:48:23;;;;;;;14.27;8.70;;;;;;;8.07;100.00;102112.81;6220660;23;20029;-80
2022/10/31 07:51:08;;;;;;;12.10;9.23;;;;;;;8.13;100.00;102116.56;6221397;23;20033;-80
2022/10/31 07:53:54;;;;;;;19.88;9.00;;;;;;;8.15;100.00;102118.81;6220771;23;20028;-80
2022/10/31 07:56:24;;;;;;;15.23;9.82;;;;;;;8.18;100.00;102116.16;6194186;23;20051;-78
2022/10/31 07:58:51;;;;;;;19.55;9.77;;;;;;;8.25;100.00;102116.13;6193752;23;20027;-81
2022/10/31 08:01:17;;;;;;;46.28;10.23;;;;;;;8.31;100.00;102111.91;6221282;23;20021;-79
2022/10/31 08:03:57;;;;;;;24.38;9.73;;;;;;;8.36;100.00;102124.03;6194057;23;20068;-78
2022/10/31 08:06:44;;;;;;;21.70;9.85;;;;;;;8.40;100.00;102124.00;6221379;23;20025;-80
2022/10/31 08:09:23;;;;;;;34.08;10.15;;;;;;;8.44;100.00;102130.03;6194207;23;20013;-79
2022/10/31 08:11:52;;;;;;;14.93;9.90;;;;;;;8.51;100.00;102122.75;6194067;23;20021;-79
2022/10/31 08:14:19;;;;;;;24.85;10.07;;;;;;;8.64;100.00;102126.47;6193514;23;20072;-81
2022/10/31 08:16:45;;;;;;;28.50;11.05;;;;;;;8.78;100.00;102130.16;6221221;23;20059;-79
2022/10/31 08:19:12;;;;;;;18.05;10.68;;;;;;;8.86;100.00;102129.66;6193637;23;20037;-79
2022/10/31 08:21:39;;;;;;;24.98;10.25;;;;;;;8.92;100.00;102133.41;6194185;23;20021;-81
2022/10/31 08:24:07;;;;;;;31.08;10.45;;;;;;;9.01;100.00;102124.97;6193896;23;20013;-80
2022/10/31 08:26:34;;;;;;;23.30;10.43;;;;;;;9.14;100.00;102133.97;6194006;23;20032;-80
2022/10/31 08:29:03;;;;;;;19.05;10.48;;;;;;;9.27;100.00;102129.63;6193892;23;20076;-81
2022/10/31 08:31:32;;;;;;;22.27;12.27;;;;;;;9.41;100.00;102123.41;6194010;23;20498;-79
2022/10/31 08:34:22;;;;;;;16.67;11.15;;;;;;;9.50;100.00;102126.34;6220567;23;20104;-81
2022/10/31 08:37:07;;;;;;;16.20;11.90;;;;;;;9.60;100.00;102119.38;6221025;23;20029;-82
2022/10/31 08:39:48;;;;;;;15.15;11.52;;;;;;;9.65;100.00;102117.03;6193766;23;20021;-80
2022/10/31 08:42:14;;;;;;;16.35;12.23;;;;;;;9.71;100.00;102125.31;6220461;23;20017;-79
2022/10/31 08:44:41;;;;;;;14.95;12.50;;;;;;;9.75;100.00;102122.63;6193897;23;20025;-80
2022/10/31 08:47:07;;;;;;;14.18;12.35;;;;;;;9.76;100.00;102124.88;6193949;23;20048;-81
2022/10/31 08:49:35;;;;;;;16.48;12.95;;;;;;;9.79;100.00;102124.09;6194057;23;20049;-80
2022/10/31 08:52:02;;;;;;;17.50;13.05;;;;;;;9.84;100.00;102123.63;6194010;23;20459;-80
2022/10/31 08:54:32;;;;;;;17.13;13.35;;;;;;;9.88;100.00;102113.72;6193907;23;20021;-81
2022/10/31 08:57:27;;;;;;;15.48;12.60;;;;;;;9.96;100.00;102107.16;6220035;23;20108;-81
2022/10/31 08:59:55;;;;;;;15.32;13.30;;;;;;;10.03;100.00;102100.94;6193804;23;20096;-80
2022/10/31 09:02:43;;;;;;;16.25;12.55;;;;;;;10.09;100.00;102102.00;6193692;23;20028;-81
2022/10/31 09:05:09;;;;;;;15.02;12.98;;;;;;;10.18;100.00;102107.56;6193739;23;20021;-79
2022/10/31 09:07:36;;;;;;;18.75;12.75;;;;;;;10.26;100.00;102101.03;6193846;23;20521;-80
2022/10/31 09:10:03;;;;;;;18.55;14.00;;;;;;;10.34;100.00;102105.09;6193890;23;20072;-79
2022/10/31 09:12:33;;;;;;;19.52;13.80;;;;;;;10.44;100.00;102106.06;6193614;23;20566;-79
2022/10/31 09:15:00;;;;;;;18.83;14.77;;;;;;;10.56;100.00;102092.16;6220608;23;20104;-80
2022/10/31 09:17:36;;;;;;;20.77;15.73;;;;;;;10.70;100.00;102088.50;6193613;23;20056;-79
2022/10/31 09:20:15;;;;;;;21.17;15.45;;;;;;;10.81;100.00;102085.66;6193500;23;20072;-80
2022/10/31 09:22:42;;;;;;;20.35;15.18;;;;;;;10.89;100.00;102081.69;6220682;23;20017;-79
2022/10/31 09:25:09;;;;;;;17.67;15.73;;;;;;;10.96;100.00;102073.56;6193274;23;20024;-79
2022/10/31 09:27:37;;;;;;;22.75;16.02;;;;;;;11.02;100.00;102066.63;6193830;23;20027;-79
2022/10/31 09:30:06;;;;;;;23.25;16.42;;;;;;;11.08;100.00;102056.22;6193624;23;20443;-79
2022/10/31 09:32:33;;;;;;;21.67;15.45;;;;;;;11.17;100.00;102062.53;6193395;23;20025;-79
2022/10/31 09:35:05;;;;;;;17.05;15.13;;;;;;;11.27;100.00;102058.88;6170059;23;20017;-80
2022/10/31 09:37:31;;;;;;;21.55;16.35;;;;;;;11.37;100.00;102054.50;6193503;23;20195;-79
2022/10/31 09:39:58;;;;;;;22.35;16.60;;;;;;;11.47;100.00;102047.44;6192844;23;20048;-79
2022/10/31 09:43:03;;;;;;;20.35;17.25;;;;;;;11.60;100.00;102051.69;6220609;23;20028;-80
2022/10/31 09:45:42;;;;;;;21.70;17.85;;;;;;;11.79;100.00;102062.75;6168710;23;20025;-80
2022/10/31 09:48:57;;;;;;;23.70;18.40;;;;;;;11.97;100.00;102053.19;6188440;23;20017;-80
2022/10/31 09:51:54;;;;;;;22.15;17.00;;;;;;;12.13;100.00;102055.09;6188770;23;20092;-80
2022/10/31 09:54:49;;;;;;;22.42;17.02;;;;;;;12.22;100.00;102051.84;6189919;23;20026;-79
2022/10/31 09:57:23;;;;;;;21.20;17.30;;;;;;;12.32;100.00;102054.25;6188712;23;20020;-81
2022/10/31 09:59:50;;;;;;;23.63;17.52;;;;;;;12.41;100.00;102042.97;6188923;23;20089;-79
2022/10/31 10:02:27;;;;;;;24.52;17.17;;;;;;;12.56;100.00;102052.13;6188399;23;20021;-78
2022/10/31 10:05:01;;;;;;;26.58;17.52;;;;;;;12.72;100.00;102039.91;6188861;23;20088;-78
2022/10/31 10:07:32;;;;;;;27.08;17.08;;;;;;;12.82;100.00;102046.84;6188625;23;20021;-78
2022/10/31 10:10:27;;;;;;;24.10;16.25;;;;;;;12.93;100.00;102041.97;6190037;23;20025;-79
2022/10/31 10:13:35;;;;;;;22.17;16.65;;;;;;;13.03;100.00;102033.66;6190473;23;20222;-78
2022/10/31 10:16:14;;;;;;;26.52;16.67;;;;;;;13.16;100.00;102028.38;6190637;23;20084;-79
2022/10/31 10:18:46;;;;;;;23.27;16.92;;;;;;;13.24;100.00;102029.66;6190536;23;20100;-78
2022/10/31 10:21:39;;;;;;;22.17;16.85;;;;;;;13.30;100.00;102038.66;6190371;23;20041;-78
2022/10/31 10:24:24;;;;;;;27.88;16.95;;;;;;;13.37;100.00;102036.94;6189693;23;20455;-77
2022/10/31 10:27:32;;;;;;;24.95;17.60;;;;;;;13.43;100.00;102027.22;6190459;23;20090;-77
2022/10/31 10:30:06;;;;;;;28.48;18.17;;;;;;;13.46;100.00;102023.69;6129346;23;20479;-78
2022/10/31 10:32:43;;;;;;;24.77;17.52;;;;;;;13.51;100.00;102021.25;6190455;23;20017;-77
2022/10/31 10:35:29;;;;;;;21.77;16.38;;;;;;;13.56;100.00;102019.97;6188537;23;20521;-77
2022/10/31 10:38:18;;;;;;;24.73;15.15;;;;;;;13.61;100.00;102014.78;6189804;23;20089;-78
2022/10/31 10:40:46;;;;;;;22.15;14.23;;;;;;;13.67;100.00;102017.69;6174580;23;20088;-77
2022/10/31 10:43:25;;;;;;;17.35;13.55;;;;;;;13.74;100.00;102009.44;6191694;23;20013;-78
2022/10/31 10:48:55;;;;;;;20.50;13.07;;;;;;;13.91;100.00;101988.66;6215290;23;20052;-77
2022/10/31 10:51:27;;;;;;;18.30;12.85;;;;;;;14.00;99.67;101980.69;6223552;23;20418;-78
2022/10/31 10:54:39;;;;;;;19.55;13.25;;;;;;;14.13;99.94;101978.72;6196915;23;20013;-77
2022/10/31 10:57:19;;;;;;;20.10;13.18;;;;;;;14.22;98.95;101970.00;6223750;23;20084;-77
2022/10/31 10:59:46;;;;;;;18.83;13.27;;;;;;;14.30;97.92;101972.03;6223690;23;20089;-77
2022/10/31 11:02:26;;;;;;;18.60;13.65;;;;;;;14.41;97.71;101966.31;6196685;23;20088;-78
2022/10/31 11:04:56;;;;;;;19.00;14.05;;;;;;;14.47;97.02;101950.41;6223776;23;20080;-77
2022/10/31 11:07:23;;;;;;;21.83;13.88;;;;;;;14.52;96.04;101949.84;6222820;23;20107;-77
2022/10/31 11:09:49;;;;;;;23.77;14.80;;;;;;;14.52;95.07;101934.53;6223574;23;20100;-77
2022/10/31 11:12:30;;;;;;;16.73;12.65;;;;;;;14.53;94.89;101919.19;6223676;23;20088;-77
2022/10/31 11:15:01;;;;;;;22.77;13.32;;;;;;;14.56;94.61;101910.28;6223621;23;20017;-77
2022/10/31 11:17:31;;;;;;;25.20;12.90;;;;;;;14.60;93.23;101918.94;6223488;23;20490;-77
2022/10/31 11:20:03;;;;;;;22.67;12.57;;;;;;;14.65;93.99;101927.16;6223592;23;20414;-78
2022/10/31 11:22:30;;;;;;;;;;;;;;;14.73;95.11;101921.56;6223361;23;20013;-77
2022/10/31 11:24:56;;;;;;;20.05;11.70;;;;;;;14.78;93.20;101929.78;6223597;23;20250;-77
2022/10/31 11:27:25;;;;;;;15.70;11.77;;;;;;;14.86;93.41;101924.88;6223125;23;20482;-77
2022/10/31 11:30:03;;;;;;;20.05;11.82;;;;;;;14.90;92.82;101925.50;6223202;23;20096;-77
2022/10/31 11:32:29;;;;;;;21.50;13.15;;;;;;;14.94;93.61;101934.91;6223266;23;20037;-77
2022/10/31 11:35:03;;;;;;;18.77;12.82;;;;;;;14.97;93.19;101917.94;6196857;23;20037;-77
2022/10/31 11:37:35;;;;;;;21.77;13.02;;;;;;;14.99;92.69;101915.56;6222953;23;20013;-78
2022/10/31 11:40:06;;;;;;;;;;;;;;;15.03;93.78;101907.38;6223885;23;20053;-77
2022/10/31 11:42:41;;;;;;;19.27;13.45;;;;;;;15.06;92.72;101906.50;6196648;23;19988;-77
2022/10/31 11:45:33;;;;;;;30.67;15.18;;;;;;;15.08;91.74;101906.06;6223208;23;20049;-82
2022/10/31 11:48:01;;;;;;;23.25;14.98;;;;;;;15.09;91.40;101902.19;6223136;23;20049;-84
2022/10/31 11:50:41;;;;;;;28.67;17.30;;;;;;;15.11;91.82;101891.75;6222457;23;20044;-82